Belgrade, Serbia
Current Conditions -  °F | °C
As of 8:00 PM on Wednesday 28 Jan 2015 (Local Time) from LYBE Reporting Station
Overcast Overcast  
Wind Chill: 30°   Ceiling: 1700
Heat Index: 34°   Visibility: 5mi
Dew Point: 32°   Wind: 5mph
Humidity: 93%   Direction: 250°WSW
Pressure: 30"   Gusts: NA
Location:  44.83°N, 20.5°E
Report Text: LYBE 281800Z 25004KT 8000 BKN017 OVC040 01/M00 Q1016 NOSIG
Loading
Personal Weather Stations






























Interactive Weather Map New forecast layout! Learn more

10-Day Weather Forecast

Advertisements
Track Severe Weather on mobile